Portada
METAR-TAF:

METAR-TAF

Aeroports :

Aeroport de Can Tho

Cần Thơ, Vietnam

latitud: 10-05-07N, longitud: 105-42-43E, altitud: 3 m

METAR: manca

Hora: 07:48 (00:48 UTC)

Pronòstic

L'informe es va fer fa 1 hora i 48 minuts, a les 23:00 UTC
Pronòstic vàlid del 25 a les 00 UTC al 25 a les 24 UTC
Vent 6 kt del Oest
Visibilitat 10 km o més
Núvols disperses a una alçada de 1500 ft
Núvols disperses a una alçada de 4000 ft
Temporalment
l' 25 a les 04 UTC al 25 a les 10 UTC
Vent 15 kt del Oest amb ràfegues de 26 kt
Visibilitat: 3000 m
Núvols disperses a una alçada de 1300 ft
Núvols disperses a una alçada de 1500 ft, Cumulonimbus.
tempesta, pluja

TAF: VVCT 242300Z 2500/2524 26006KT 9999 SCT015 SCT040 TEMPO 2504/2510 26015G26KT 3000 TSRA SCT013 SCT015CB

Observacions i pronòstics meteorològics de més de 4000 aeroports (METAR i TAF).

Les estacions disponibles són els punts grocs i vermells al mapa.

Posi el ratolí al punt desitjat per veure el nom de l'estació.

Feu clic per veure les observacions i els pronòstics meteorològics.

Per canviar el mapa: feu clic els botons verds amb una creu de color negre per apropar; al botó verd amb un guió per allunyar la imatge; o en les fletxes verdes per a mapes adjacents.


METAR-TAF: